Morgenster — PHMY — position and weather

sailwx.info

Track history (hours):
 
Tides and Currents Weather Stations Pressure Air Temp Water Temp Dewpoint Dewpoint Depression Visibility Wind Speed Wind Dir Waves Ship Positions

Morgenster

Last reported at 2016-May-27 11:19 UTC. Time now 2016-May-28 04:03 UTC.
Position N 54°39' W 005°51'.

Length 38 m; draft 2.4 m.

Type: Sailing vessel. MMSI: 245136000.

Date/timePositionNaut miles runAvg speedWind from/ knotsBaromVisibWave heightAir tempDewpointWater temp
2016-May-27 11:19N 54°39' W 005°51'3 4.2
2016-May-27 10:33N 54°41' W 005°46'3 3.2
2016-May-27 09:33N 54°41' W 005°41'3 2.4
2016-May-27 08:31N 54°43' W 005°44'0 0.0
2016-May-27 07:31N 54°43' W 005°44'0 0.0
2016-May-27 06:31N 54°43' W 005°44'0 0.0
2016-May-27 05:31N 54°43' W 005°44'0 0.0
2016-May-27 04:31N 54°43' W 005°44'0 0.0
2016-May-27 03:25N 54°43' W 005°44'0 0.0
2016-May-27 02:28N 54°43' W 005°44'0 0.0
2016-May-26 22:33N 54°43' W 005°44'26 6.6
2016-May-26 18:33N 55°09' W 005°50'6 5.7
2016-May-26 17:33N 55°15' W 005°52'4 4.0
2016-May-26 16:34N 55°19' W 005°50'4 3.6
2016-May-26 15:32N 55°22' W 005°51'11 4.7
2016-May-26 13:15N 55°33' W 005°52'5 5.0
2016-May-26 12:20N 55°38' W 005°50'2 3.2
2016-May-26 11:33N 55°40' W 005°50'43 1.5
2016-May-25 07:32N 56°22' W 005°34'4 1.0
2016-May-25 03:31N 56°25' W 005°29'0 0.0
2016-May-24 23:22N 56°25' W 005°29'0 0.0
2016-May-24 20:16N 56°25' W 005°29'0 0.0
2016-May-24 19:28N 56°25' W 005°29'0 0.0
2016-May-24 18:31N 56°25' W 005°29'0 0.0
2016-May-24 17:22N 56°25' W 005°29'0 0.0
2016-May-24 16:16N 56°25' W 005°29'0 0.0
2016-May-24 15:25N 56°25' W 005°29'0 0.0
2016-May-24 14:04N 56°25' W 005°29'0 0.0
2016-May-24 13:25N 56°25' W 005°29'0 0.0
2016-May-24 12:07N 56°25' W 005°29'3 4.5
2016-May-24 11:33N 56°26' W 005°33'  
2016-May-22 07:20N 58°29' W 004°42'0 0.0
2016-May-22 05:32N 58°29' W 004°42'0 0.0
2016-May-22 04:32N 58°29' W 004°42'0 0.0
2016-May-22 03:32N 58°29' W 004°42'0 0.0
2016-May-22 02:26N 58°29' W 004°42'0 0.0
2016-May-22 01:32N 58°29' W 004°42'0 0.0
2016-May-22 00:32N 58°29' W 004°42'0 0.0
2016-May-21 23:32N 58°29' W 004°42'0 0.0
2016-May-21 22:32N 58°29' W 004°42'0 0.0
2016-May-21 21:32N 58°29' W 004°42'0 0.0
2016-May-21 20:32N 58°29' W 004°42'0 0.0
2016-May-21 19:32N 58°29' W 004°42'0 0.0
2016-May-21 18:29N 58°29' W 004°42'0 0.0
2016-May-21 17:32N 58°29' W 004°42'0 0.0
2016-May-21 16:29N 58°29' W 004°42'0 0.0
2016-May-21 15:29N 58°29' W 004°42'0 0.0
2016-May-21 14:29N 58°29' W 004°42'17 2.3
2016-May-21 07:07N 58°36' W 004°13'2 4.1
2016-May-21 06:32N 58°38' W 004°10'3 3.4
2016-May-21 05:33N 58°40' W 004°06'7 6.5
2016-May-21 04:27N 58°46' W 003°58'6 7.1
2016-May-21 03:33N 58°52' W 003°52'6 5.6
2016-May-21 02:33N 58°57' W 003°47'4 4.5
2016-May-21 01:33N 58°59' W 003°40'5 4.7
2016-May-21 00:33N 59°03' W 003°34'4 3.7
2016-May-20 23:33N 59°05' W 003°29'4 4.3
2016-May-20 22:33N 59°08' W 003°23'5 5.1
2016-May-20 21:33N 59°10' W 003°13'6 6.1
2016-May-20 20:33N 59°07' W 003°03'5 5.3
2016-May-20 19:33N 59°02' W 002°57'3 2.8
2016-May-20 18:32N 58°60' W 002°58'0 0.0
2016-May-20 17:32N 58°60' W 002°58'0 0.0
2016-May-20 15:29N 58°60' W 002°58'0 0.0
2016-May-20 14:29N 58°60' W 002°58'0 0.0
2016-May-20 13:29N 58°60' W 002°58'0 0.0
2016-May-20 12:20N 58°60' W 002°58'0 0.0
2016-May-20 11:29N 58°60' W 002°58'0 0.0
2016-May-20 10:32N 58°60' W 002°58'0 0.0
2016-May-20 09:32N 58°60' W 002°58'0 0.0
2016-May-20 08:32N 58°60' W 002°58'0 0.0
2016-May-20 07:32N 58°60' W 002°58'0 0.0
2016-May-20 06:32N 58°60' W 002°58'0 0.0
2016-May-20 05:25N 58°60' W 002°58'  
Track history (hours):
 
Tides and Currents Weather Stations Pressure Air Temp Water Temp Dewpoint Dewpoint Depression Visibility Wind Speed Wind Dir Waves Ship Positions

Morgenster

Last reported at 2016-May-27 11:19 UTC. Time now 2016-May-28 04:03 UTC.
Position N 54°39' W 005°51'.

Length 38 m; draft 2.4 m.

Type: Sailing vessel. MMSI: 245136000.

Date/timePositionNaut miles runAvg speedWind from/ knotsBaromVisibWave heightAir tempDewpointWater temp
2016-May-27 11:19N 54°39' W 005°51'3 4.2
2016-May-27 10:33N 54°41' W 005°46'3 3.2
2016-May-27 09:33N 54°41' W 005°41'3 2.4
2016-May-27 08:31N 54°43' W 005°44'0 0.0
2016-May-27 07:31N 54°43' W 005°44'0 0.0
2016-May-27 06:31N 54°43' W 005°44'0 0.0
2016-May-27 05:31N 54°43' W 005°44'0 0.0
2016-May-27 04:31N 54°43' W 005°44'0 0.0
2016-May-27 03:25N 54°43' W 005°44'0 0.0
2016-May-27 02:28N 54°43' W 005°44'0 0.0
2016-May-26 22:33N 54°43' W 005°44'26 6.6
2016-May-26 18:33N 55°09' W 005°50'6 5.7
2016-May-26 17:33N 55°15' W 005°52'4 4.0
2016-May-26 16:34N 55°19' W 005°50'4 3.6
2016-May-26 15:32N 55°22' W 005°51'11 4.7
2016-May-26 13:15N 55°33' W 005°52'5 5.0
2016-May-26 12:20N 55°38' W 005°50'2 3.2
2016-May-26 11:33N 55°40' W 005°50'43 1.5
2016-May-25 07:32N 56°22' W 005°34'4 1.0
2016-May-25 03:31N 56°25' W 005°29'0 0.0
2016-May-24 23:22N 56°25' W 005°29'0 0.0
2016-May-24 20:16N 56°25' W 005°29'0 0.0
2016-May-24 19:28N 56°25' W 005°29'0 0.0
2016-May-24 18:31N 56°25' W 005°29'0 0.0
2016-May-24 17:22N 56°25' W 005°29'0 0.0
2016-May-24 16:16N 56°25' W 005°29'0 0.0
2016-May-24 15:25N 56°25' W 005°29'0 0.0
2016-May-24 14:04N 56°25' W 005°29'0 0.0
2016-May-24 13:25N 56°25' W 005°29'0 0.0
2016-May-24 12:07N 56°25' W 005°29'3 4.5
2016-May-24 11:33N 56°26' W 005°33'  
2016-May-22 07:20N 58°29' W 004°42'0 0.0
2016-May-22 05:32N 58°29' W 004°42'0 0.0
2016-May-22 04:32N 58°29' W 004°42'0 0.0
2016-May-22 03:32N 58°29' W 004°42'0 0.0
2016-May-22 02:26N 58°29' W 004°42'0 0.0
2016-May-22 01:32N 58°29' W 004°42'0 0.0
2016-May-22 00:32N 58°29' W 004°42'0 0.0
2016-May-21 23:32N 58°29' W 004°42'0 0.0
2016-May-21 22:32N 58°29' W 004°42'0 0.0
2016-May-21 21:32N 58°29' W 004°42'0 0.0
2016-May-21 20:32N 58°29' W 004°42'0 0.0
2016-May-21 19:32N 58°29' W 004°42'0 0.0
2016-May-21 18:29N 58°29' W 004°42'0 0.0
2016-May-21 17:32N 58°29' W 004°42'0 0.0
2016-May-21 16:29N 58°29' W 004°42'0 0.0
2016-May-21 15:29N 58°29' W 004°42'0 0.0
2016-May-21 14:29N 58°29' W 004°42'17 2.3
2016-May-21 07:07N 58°36' W 004°13'2 4.1
2016-May-21 06:32N 58°38' W 004°10'3 3.4
2016-May-21 05:33N 58°40' W 004°06'7 6.5
2016-May-21 04:27N 58°46' W 003°58'6 7.1
2016-May-21 03:33N 58°52' W 003°52'6 5.6
2016-May-21 02:33N 58°57' W 003°47'4 4.5
2016-May-21 01:33N 58°59' W 003°40'5 4.7
2016-May-21 00:33N 59°03' W 003°34'4 3.7
2016-May-20 23:33N 59°05' W 003°29'4 4.3
2016-May-20 22:33N 59°08' W 003°23'5 5.1
2016-May-20 21:33N 59°10' W 003°13'6 6.1
2016-May-20 20:33N 59°07' W 003°03'5 5.3
2016-May-20 19:33N 59°02' W 002°57'3 2.8
2016-May-20 18:32N 58°60' W 002°58'0 0.0
2016-May-20 17:32N 58°60' W 002°58'0 0.0
2016-May-20 15:29N 58°60' W 002°58'0 0.0
2016-May-20 14:29N 58°60' W 002°58'0 0.0
2016-May-20 13:29N 58°60' W 002°58'0 0.0
2016-May-20 12:20N 58°60' W 002°58'0 0.0
2016-May-20 11:29N 58°60' W 002°58'0 0.0
2016-May-20 10:32N 58°60' W 002°58'0 0.0
2016-May-20 09:32N 58°60' W 002°58'0 0.0
2016-May-20 08:32N 58°60' W 002°58'0 0.0
2016-May-20 07:32N 58°60' W 002°58'0 0.0
2016-May-20 06:32N 58°60' W 002°58'0 0.0
2016-May-20 05:25N 58°60' W 002°58'  

Dump ship's entire track history